sensor_id;sensor_type;location;lat;lon;timestamp;temperature;humidity
17146;DHT22;8688;54.444;18.444;2023-01-10T00:01:28;5.40;99.90
17146;DHT22;8688;54.444;18.444;2023-01-10T00:03:55;5.40;99.90
17146;DHT22;8688;54.444;18.444;2023-01-10T00:06:23;5.30;99.90
17146;DHT22;8688;54.444;18.444;2023-01-10T00:08:50;5.40;99.90
17146;DHT22;8688;54.444;18.444;2023-01-10T00:11:18;5.30;99.90
17146;DHT22;8688;54.444;18.444;2023-01-10T00:14:03;5.30;99.90
17146;DHT22;8688;54.444;18.444;2023-01-10T00:16:32;5.40;99.90
17146;DHT22;8688;54.444;18.444;2023-01-10T00:18:59;5.30;99.90
17146;DHT22;8688;54.444;18.444;2023-01-10T00:21:27;5.30;99.90
17146;DHT22;8688;54.444;18.444;2023-01-10T00:23:54;5.30;99.90
17146;DHT22;8688;54.444;18.444;2023-01-10T00:28:54;5.30;99.90
17146;DHT22;8688;54.444;18.444;2023-01-10T00:31:23;5.30;99.90
17146;DHT22;8688;54.444;18.444;2023-01-10T00:33:53;5.30;99.90
17146;DHT22;8688;54.444;18.444;2023-01-10T00:36:21;5.30;99.90
17146;DHT22;8688;54.444;18.444;2023-01-10T00:38:48;5.30;99.90
17146;DHT22;8688;54.444;18.444;2023-01-10T00:41:16;5.30;99.90
17146;DHT22;8688;54.444;18.444;2023-01-10T00:43:57;5.30;99.90
17146;DHT22;8688;54.444;18.444;2023-01-10T00:46:25;5.30;99.90
17146;DHT22;8688;54.444;18.444;2023-01-10T00:48:54;5.20;99.90
17146;DHT22;8688;54.444;18.444;2023-01-10T00:51:22;5.20;99.90
17146;DHT22;8688;54.444;18.444;2023-01-10T00:53:49;5.20;99.90
17146;DHT22;8688;54.444;18.444;2023-01-10T00:56:17;5.20;99.90
17146;DHT22;8688;54.444;18.444;2023-01-10T00:58:44;5.20;99.90
17146;DHT22;8688;54.444;18.444;2023-01-10T01:01:12;5.20;99.90
17146;DHT22;8688;54.444;18.444;2023-01-10T01:03:39;5.20;99.90
17146;DHT22;8688;54.444;18.444;2023-01-10T01:06:08;5.20;99.90
17146;DHT22;8688;54.444;18.444;2023-01-10T01:08:36;5.10;99.90
17146;DHT22;8688;54.444;18.444;2023-01-10T01:11:03;5.10;99.90
17146;DHT22;8688;54.444;18.444;2023-01-10T01:13:31;5.10;99.90
17146;DHT22;8688;54.444;18.444;2023-01-10T01:15:59;5.00;99.90
17146;DHT22;8688;54.444;18.444;2023-01-10T01:18:27;5.00;99.90
17146;DHT22;8688;54.444;18.444;2023-01-10T01:20:56;5.00;99.90
17146;DHT22;8688;54.444;18.444;2023-01-10T01:23:27;4.90;99.90
17146;DHT22;8688;54.444;18.444;2023-01-10T01:25:55;4.90;99.90
17146;DHT22;8688;54.444;18.444;2023-01-10T01:28:23;4.90;99.90
17146;DHT22;8688;54.444;18.444;2023-01-10T01:30:51;4.90;99.90
17146;DHT22;8688;54.444;18.444;2023-01-10T01:33:19;5.00;99.90
17146;DHT22;8688;54.444;18.444;2023-01-10T01:35:47;5.00;99.90
17146;DHT22;8688;54.444;18.444;2023-01-10T01:38:15;4.90;99.90
17146;DHT22;8688;54.444;18.444;2023-01-10T01:40:45;4.90;99.90
17146;DHT22;8688;54.444;18.444;2023-01-10T01:43:22;4.80;99.90
17146;DHT22;8688;54.444;18.444;2023-01-10T01:45:50;4.80;99.90
17146;DHT22;8688;54.444;18.444;2023-01-10T01:48:32;4.80;99.90
17146;DHT22;8688;54.444;18.444;2023-01-10T01:51:05;4.70;99.90
17146;DHT22;8688;54.444;18.444;2023-01-10T01:53:39;4.70;99.90
17146;DHT22;8688;54.444;18.444;2023-01-10T01:56:14;4.60;99.90
17146;DHT22;8688;54.444;18.444;2023-01-10T01:58:46;4.60;99.90
17146;DHT22;8688;54.444;18.444;2023-01-10T02:01:14;4.60;99.90
17146;DHT22;8688;54.444;18.444;2023-01-10T02:03:46;4.60;99.90
17146;DHT22;8688;54.444;18.444;2023-01-10T02:06:15;4.50;99.90
17146;DHT22;8688;54.444;18.444;2023-01-10T02:08:48;4.50;99.90
17146;DHT22;8688;54.444;18.444;2023-01-10T02:11:19;4.50;99.90
17146;DHT22;8688;54.444;18.444;2023-01-10T02:13:47;4.50;99.90
17146;DHT22;8688;54.444;18.444;2023-01-10T02:16:15;4.50;99.90
17146;DHT22;8688;54.444;18.444;2023-01-10T02:18:43;4.40;99.90
17146;DHT22;8688;54.444;18.444;2023-01-10T02:21:26;4.40;99.90
17146;DHT22;8688;54.444;18.444;2023-01-10T02:27:21;4.30;99.90
17146;DHT22;8688;54.444;18.444;2023-01-10T02:32:57;4.20;99.90
17146;DHT22;8688;54.444;18.444;2023-01-10T02:43:15;4.10;99.90
17146;DHT22;8688;54.444;18.444;2023-01-10T02:45:48;4.10;99.90
17146;DHT22;8688;54.444;18.444;2023-01-10T02:48:18;4.00;99.90
17146;DHT22;8688;54.444;18.444;2023-01-10T02:50:52;4.00;99.90
17146;DHT22;8688;54.444;18.444;2023-01-10T02:53:25;3.90;99.90
17146;DHT22;8688;54.444;18.444;2023-01-10T02:56:03;3.90;99.90
17146;DHT22;8688;54.444;18.444;2023-01-10T02:58:50;3.80;99.90
17146;DHT22;8688;54.444;18.444;2023-01-10T03:01:26;3.80;99.90
17146;DHT22;8688;54.444;18.444;2023-01-10T03:04:03;3.70;99.90
17146;DHT22;8688;54.444;18.444;2023-01-10T03:06:37;3.70;99.90
17146;DHT22;8688;54.444;18.444;2023-01-10T03:09:15;3.70;99.90
17146;DHT22;8688;54.444;18.444;2023-01-10T03:11:45;3.70;99.90
17146;DHT22;8688;54.444;18.444;2023-01-10T03:14:16;3.70;99.90
17146;DHT22;8688;54.444;18.444;2023-01-10T03:16:48;3.70;99.90
17146;DHT22;8688;54.444;18.444;2023-01-10T03:19:21;3.70;99.90
17146;DHT22;8688;54.444;18.444;2023-01-10T03:21:53;3.70;99.90
17146;DHT22;8688;54.444;18.444;2023-01-10T03:24:25;3.70;99.90
17146;DHT22;8688;54.444;18.444;2023-01-10T03:26:57;3.70;99.90
17146;DHT22;8688;54.444;18.444;2023-01-10T03:29:31;3.70;99.90
17146;DHT22;8688;54.444;18.444;2023-01-10T03:32:03;3.80;99.90
17146;DHT22;8688;54.444;18.444;2023-01-10T03:34:33;3.80;99.90
17146;DHT22;8688;54.444;18.444;2023-01-10T03:37:07;3.70;99.90
17146;DHT22;8688;54.444;18.444;2023-01-10T03:39:44;3.70;99.90
17146;DHT22;8688;54.444;18.444;2023-01-10T03:42:19;3.60;99.90
17146;DHT22;8688;54.444;18.444;2023-01-10T03:44:55;3.60;99.90
17146;DHT22;8688;54.444;18.444;2023-01-10T03:47:28;3.60;99.90
17146;DHT22;8688;54.444;18.444;2023-01-10T03:50:00;3.60;99.90
17146;DHT22;8688;54.444;18.444;2023-01-10T03:52:32;3.50;99.90
17146;DHT22;8688;54.444;18.444;2023-01-10T03:55:00;3.50;99.90
17146;DHT22;8688;54.444;18.444;2023-01-10T03:57:30;3.50;99.90
17146;DHT22;8688;54.444;18.444;2023-01-10T03:59:58;3.50;99.90
17146;DHT22;8688;54.444;18.444;2023-01-10T04:02:28;3.50;99.90
17146;DHT22;8688;54.444;18.444;2023-01-10T04:04:58;3.40;99.90
17146;DHT22;8688;54.444;18.444;2023-01-10T04:07:26;3.50;99.90
17146;DHT22;8688;54.444;18.444;2023-01-10T04:09:53;3.50;99.90
17146;DHT22;8688;54.444;18.444;2023-01-10T04:12:41;3.40;99.90
17146;DHT22;8688;54.444;18.444;2023-01-10T04:15:10;3.40;99.90
17146;DHT22;8688;54.444;18.444;2023-01-10T04:17:38;3.30;99.90
17146;DHT22;8688;54.444;18.444;2023-01-10T04:20:08;3.30;99.90
17146;DHT22;8688;54.444;18.444;2023-01-10T04:22:36;3.30;99.90
17146;DHT22;8688;54.444;18.444;2023-01-10T04:25:04;3.30;99.90
17146;DHT22;8688;54.444;18.444;2023-01-10T04:27:31;3.30;99.90
17146;DHT22;8688;54.444;18.444;2023-01-10T04:29:59;3.30;99.90
17146;DHT22;8688;54.444;18.444;2023-01-10T04:32:26;3.30;99.90
17146;DHT22;8688;54.444;18.444;2023-01-10T04:34:54;3.40;99.90
17146;DHT22;8688;54.444;18.444;2023-01-10T04:37:23;3.40;99.90
17146;DHT22;8688;54.444;18.444;2023-01-10T04:39:50;3.40;99.90
17146;DHT22;8688;54.444;18.444;2023-01-10T04:42:18;3.40;99.90
17146;DHT22;8688;54.444;18.444;2023-01-10T04:44:45;3.50;99.90
17146;DHT22;8688;54.444;18.444;2023-01-10T04:47:13;3.50;99.90
17146;DHT22;8688;54.444;18.444;2023-01-10T04:49:40;3.50;99.90
17146;DHT22;8688;54.444;18.444;2023-01-10T04:52:08;3.60;99.90
17146;DHT22;8688;54.444;18.444;2023-01-10T04:54:37;3.60;99.90
17146;DHT22;8688;54.444;18.444;2023-01-10T04:57:05;3.60;99.90
17146;DHT22;8688;54.444;18.444;2023-01-10T04:59:33;3.60;99.90
17146;DHT22;8688;54.444;18.444;2023-01-10T05:02:00;3.70;99.90
17146;DHT22;8688;54.444;18.444;2023-01-10T05:04:28;3.70;99.90
17146;DHT22;8688;54.444;18.444;2023-01-10T05:06:55;3.80;99.90
17146;DHT22;8688;54.444;18.444;2023-01-10T05:09:22;3.80;99.90
17146;DHT22;8688;54.444;18.444;2023-01-10T05:11:51;3.80;99.90
17146;DHT22;8688;54.444;18.444;2023-01-10T05:14:19;3.80;99.90
17146;DHT22;8688;54.444;18.444;2023-01-10T05:16:47;3.80;99.90
17146;DHT22;8688;54.444;18.444;2023-01-10T05:19:14;3.80;99.90
17146;DHT22;8688;54.444;18.444;2023-01-10T05:21:42;3.80;99.90
17146;DHT22;8688;54.444;18.444;2023-01-10T05:24:09;3.80;99.90
17146;DHT22;8688;54.444;18.444;2023-01-10T05:26:37;3.80;99.90
17146;DHT22;8688;54.444;18.444;2023-01-10T05:29:08;3.80;99.90
17146;DHT22;8688;54.444;18.444;2023-01-10T05:31:35;3.80;99.90
17146;DHT22;8688;54.444;18.444;2023-01-10T05:34:03;3.80;99.90
17146;DHT22;8688;54.444;18.444;2023-01-10T05:36:30;3.80;99.90
17146;DHT22;8688;54.444;18.444;2023-01-10T05:38:58;3.80;99.90
17146;DHT22;8688;54.444;18.444;2023-01-10T05:41:25;3.80;99.90
17146;DHT22;8688;54.444;18.444;2023-01-10T05:43:53;3.80;99.90
17146;DHT22;8688;54.444;18.444;2023-01-10T05:46:22;3.90;99.90
17146;DHT22;8688;54.444;18.444;2023-01-10T05:51:17;3.90;99.90
17146;DHT22;8688;54.444;18.444;2023-01-10T05:53:44;3.90;99.90
17146;DHT22;8688;54.444;18.444;2023-01-10T05:56:12;3.80;99.90
17146;DHT22;8688;54.444;18.444;2023-01-10T05:58:39;3.80;99.90
17146;DHT22;8688;54.444;18.444;2023-01-10T06:01:07;3.80;99.90
17146;DHT22;8688;54.444;18.444;2023-01-10T06:03:36;3.80;99.90
17146;DHT22;8688;54.444;18.444;2023-01-10T06:06:03;3.70;99.90
17146;DHT22;8688;54.444;18.444;2023-01-10T06:08:31;3.60;99.90
17146;DHT22;8688;54.444;18.444;2023-01-10T06:10:58;3.60;99.90
17146;DHT22;8688;54.444;18.444;2023-01-10T06:13:26;3.50;99.90
17146;DHT22;8688;54.444;18.444;2023-01-10T06:15:53;3.50;99.90
17146;DHT22;8688;54.444;18.444;2023-01-10T06:18:21;3.50;99.90
17146;DHT22;8688;54.444;18.444;2023-01-10T06:20:50;3.50;99.90
17146;DHT22;8688;54.444;18.444;2023-01-10T06:23:17;3.50;99.90
17146;DHT22;8688;54.444;18.444;2023-01-10T06:25:45;3.50;99.90
17146;DHT22;8688;54.444;18.444;2023-01-10T06:28:13;3.50;99.90
17146;DHT22;8688;54.444;18.444;2023-01-10T06:30:41;3.50;99.90
17146;DHT22;8688;54.444;18.444;2023-01-10T06:33:10;3.50;99.90
17146;DHT22;8688;54.444;18.444;2023-01-10T06:35:37;3.50;99.90
17146;DHT22;8688;54.444;18.444;2023-01-10T06:38:06;3.50;99.90
17146;DHT22;8688;54.444;18.444;2023-01-10T06:40:34;3.40;99.90
17146;DHT22;8688;54.444;18.444;2023-01-10T06:43:01;3.50;99.90
17146;DHT22;8688;54.444;18.444;2023-01-10T06:45:29;3.50;99.90
17146;DHT22;8688;54.444;18.444;2023-01-10T06:47:56;3.40;99.90
17146;DHT22;8688;54.444;18.444;2023-01-10T06:50:24;3.50;99.90
17146;DHT22;8688;54.444;18.444;2023-01-10T06:52:55;3.40;99.90
17146;DHT22;8688;54.444;18.444;2023-01-10T06:55:24;3.40;99.90
17146;DHT22;8688;54.444;18.444;2023-01-10T06:57:56;3.30;99.90
17146;DHT22;8688;54.444;18.444;2023-01-10T07:00:24;3.30;99.90
17146;DHT22;8688;54.444;18.444;2023-01-10T07:02:53;3.30;99.90
17146;DHT22;8688;54.444;18.444;2023-01-10T07:05:21;3.20;99.90
17146;DHT22;8688;54.444;18.444;2023-01-10T07:07:48;3.20;99.90
17146;DHT22;8688;54.444;18.444;2023-01-10T07:10:16;3.20;99.90
17146;DHT22;8688;54.444;18.444;2023-01-10T07:12:45;3.10;99.90
17146;DHT22;8688;54.444;18.444;2023-01-10T07:15:12;3.00;99.90
17146;DHT22;8688;54.444;18.444;2023-01-10T07:17:40;3.00;99.90
17146;DHT22;8688;54.444;18.444;2023-01-10T07:20:09;3.00;99.90
17146;DHT22;8688;54.444;18.444;2023-01-10T07:22:37;3.00;99.90
17146;DHT22;8688;54.444;18.444;2023-01-10T07:25:05;2.90;99.90
17146;DHT22;8688;54.444;18.444;2023-01-10T07:27:32;2.80;99.90
17146;DHT22;8688;54.444;18.444;2023-01-10T07:30:01;2.70;99.90
17146;DHT22;8688;54.444;18.444;2023-01-10T07:32:29;2.70;99.90
17146;DHT22;8688;54.444;18.444;2023-01-10T07:34:56;2.70;99.90
17146;DHT22;8688;54.444;18.444;2023-01-10T07:37:24;2.70;99.90
17146;DHT22;8688;54.444;18.444;2023-01-10T07:39:52;2.70;99.90
17146;DHT22;8688;54.444;18.444;2023-01-10T07:42:19;2.70;99.90
17146;DHT22;8688;54.444;18.444;2023-01-10T07:44:46;2.80;99.90
17146;DHT22;8688;54.444;18.444;2023-01-10T07:47:15;2.80;99.90
17146;DHT22;8688;54.444;18.444;2023-01-10T07:49:43;2.70;99.90
17146;DHT22;8688;54.444;18.444;2023-01-10T07:52:10;2.80;99.90
17146;DHT22;8688;54.444;18.444;2023-01-10T07:54:38;2.80;99.90
17146;DHT22;8688;54.444;18.444;2023-01-10T07:57:05;2.80;99.90
17146;DHT22;8688;54.444;18.444;2023-01-10T07:59:33;2.80;99.90
17146;DHT22;8688;54.444;18.444;2023-01-10T08:02:00;2.80;99.90
17146;DHT22;8688;54.444;18.444;2023-01-10T08:04:29;2.80;99.90
17146;DHT22;8688;54.444;18.444;2023-01-10T08:06:57;2.80;99.90
17146;DHT22;8688;54.444;18.444;2023-01-10T08:09:24;2.80;99.90
17146;DHT22;8688;54.444;18.444;2023-01-10T08:11:52;2.70;99.90
17146;DHT22;8688;54.444;18.444;2023-01-10T08:14:19;2.80;99.90
17146;DHT22;8688;54.444;18.444;2023-01-10T08:16:47;2.80;99.90
17146;DHT22;8688;54.444;18.444;2023-01-10T08:19:14;2.80;99.90
17146;DHT22;8688;54.444;18.444;2023-01-10T08:21:45;2.80;99.90
17146;DHT22;8688;54.444;18.444;2023-01-10T08:24:12;2.90;99.90
17146;DHT22;8688;54.444;18.444;2023-01-10T08:26:40;2.90;99.90
17146;DHT22;8688;54.444;18.444;2023-01-10T08:29:07;2.90;99.90
17146;DHT22;8688;54.444;18.444;2023-01-10T08:31:35;2.90;99.90
17146;DHT22;8688;54.444;18.444;2023-01-10T08:34:02;2.90;99.90
17146;DHT22;8688;54.444;18.444;2023-01-10T08:36:30;2.90;99.90
17146;DHT22;8688;54.444;18.444;2023-01-10T08:38:59;3.00;99.90
17146;DHT22;8688;54.444;18.444;2023-01-10T08:41:26;3.10;99.90
17146;DHT22;8688;54.444;18.444;2023-01-10T08:43:53;3.10;99.90
17146;DHT22;8688;54.444;18.444;2023-01-10T08:46:21;3.10;99.90
17146;DHT22;8688;54.444;18.444;2023-01-10T08:48:48;3.10;99.90
17146;DHT22;8688;54.444;18.444;2023-01-10T08:51:16;3.20;99.90
17146;DHT22;8688;54.444;18.444;2023-01-10T08:53:44;3.20;99.90
17146;DHT22;8688;54.444;18.444;2023-01-10T08:56:13;3.20;99.90
17146;DHT22;8688;54.444;18.444;2023-01-10T08:58:40;3.30;99.90
17146;DHT22;8688;54.444;18.444;2023-01-10T09:01:09;3.30;99.90
17146;DHT22;8688;54.444;18.444;2023-01-10T09:03:38;3.30;99.90
17146;DHT22;8688;54.444;18.444;2023-01-10T09:06:06;3.30;99.90
17146;DHT22;8688;54.444;18.444;2023-01-10T09:08:34;3.40;99.90
17146;DHT22;8688;54.444;18.444;2023-01-10T09:11:02;3.40;99.90
17146;DHT22;8688;54.444;18.444;2023-01-10T09:13:32;3.40;99.90
17146;DHT22;8688;54.444;18.444;2023-01-10T09:16:00;3.50;99.90
17146;DHT22;8688;54.444;18.444;2023-01-10T09:18:27;3.50;99.90
17146;DHT22;8688;54.444;18.444;2023-01-10T09:20:55;3.50;99.90
17146;DHT22;8688;54.444;18.444;2023-01-10T09:23:23;3.50;99.90
17146;DHT22;8688;54.444;18.444;2023-01-10T09:25:52;3.60;99.90
17146;DHT22;8688;54.444;18.444;2023-01-10T09:28:21;3.60;99.90
17146;DHT22;8688;54.444;18.444;2023-01-10T09:30:50;3.60;99.90
17146;DHT22;8688;54.444;18.444;2023-01-10T09:33:18;3.60;99.90
17146;DHT22;8688;54.444;18.444;2023-01-10T09:35:46;3.70;99.90
17146;DHT22;8688;54.444;18.444;2023-01-10T09:38:15;3.80;99.90
17146;DHT22;8688;54.444;18.444;2023-01-10T09:40:54;3.70;99.90
17146;DHT22;8688;54.444;18.444;2023-01-10T09:43:33;3.70;99.90
17146;DHT22;8688;54.444;18.444;2023-01-10T09:46:08;3.80;99.90
17146;DHT22;8688;54.444;18.444;2023-01-10T09:48:43;3.80;99.90
17146;DHT22;8688;54.444;18.444;2023-01-10T09:51:24;3.90;99.90
17146;DHT22;8688;54.444;18.444;2023-01-10T09:53:57;3.90;99.90
17146;DHT22;8688;54.444;18.444;2023-01-10T09:56:26;4.00;99.90
17146;DHT22;8688;54.444;18.444;2023-01-10T09:58:54;4.00;99.90
17146;DHT22;8688;54.444;18.444;2023-01-10T10:01:28;4.00;99.90
17146;DHT22;8688;54.444;18.444;2023-01-10T10:04:01;4.00;99.90
17146;DHT22;8688;54.444;18.444;2023-01-10T10:06:31;4.10;99.90
17146;DHT22;8688;54.444;18.444;2023-01-10T10:09:00;4.10;99.90
17146;DHT22;8688;54.444;18.444;2023-01-10T10:11:36;4.20;99.90
17146;DHT22;8688;54.444;18.444;2023-01-10T10:14:16;4.20;99.90
17146;DHT22;8688;54.444;18.444;2023-01-10T10:17:00;4.20;99.90
17146;DHT22;8688;54.444;18.444;2023-01-10T10:19:43;4.30;99.90
17146;DHT22;8688;54.444;18.444;2023-01-10T10:22:21;4.40;99.90
17146;DHT22;8688;54.444;18.444;2023-01-10T10:24:59;4.40;99.90
17146;DHT22;8688;54.444;18.444;2023-01-10T10:27:35;4.50;99.90
17146;DHT22;8688;54.444;18.444;2023-01-10T10:30:30;4.50;99.90
17146;DHT22;8688;54.444;18.444;2023-01-10T10:33:19;4.50;99.90
17146;DHT22;8688;54.444;18.444;2023-01-10T10:35:52;4.60;99.90
17146;DHT22;8688;54.444;18.444;2023-01-10T10:38:25;4.60;99.90
17146;DHT22;8688;54.444;18.444;2023-01-10T10:40:56;4.70;99.90
17146;DHT22;8688;54.444;18.444;2023-01-10T10:43:29;4.70;99.90
17146;DHT22;8688;54.444;18.444;2023-01-10T10:46:00;4.70;99.90
17146;DHT22;8688;54.444;18.444;2023-01-10T10:48:32;4.80;99.90
17146;DHT22;8688;54.444;18.444;2023-01-10T10:51:04;4.80;99.90
17146;DHT22;8688;54.444;18.444;2023-01-10T10:53:34;4.80;99.90
17146;DHT22;8688;54.444;18.444;2023-01-10T10:56:03;4.80;99.90
17146;DHT22;8688;54.444;18.444;2023-01-10T10:58:31;4.80;99.90
17146;DHT22;8688;54.444;18.444;2023-01-10T11:00:59;4.90;99.90
17146;DHT22;8688;54.444;18.444;2023-01-10T11:03:37;4.90;99.90
17146;DHT22;8688;54.444;18.444;2023-01-10T11:06:07;5.00;99.90
17146;DHT22;8688;54.444;18.444;2023-01-10T11:08:38;5.00;99.90
17146;DHT22;8688;54.444;18.444;2023-01-10T11:11:16;5.10;99.90
17146;DHT22;8688;54.444;18.444;2023-01-10T11:13:48;5.10;99.90
17146;DHT22;8688;54.444;18.444;2023-01-10T11:16:25;5.10;99.90
17146;DHT22;8688;54.444;18.444;2023-01-10T11:19:20;5.10;99.90
17146;DHT22;8688;54.444;18.444;2023-01-10T11:21:51;5.20;99.90
17146;DHT22;8688;54.444;18.444;2023-01-10T11:24:28;5.30;99.90
17146;DHT22;8688;54.444;18.444;2023-01-10T11:26:57;5.30;99.90
17146;DHT22;8688;54.444;18.444;2023-01-10T11:29:28;5.30;99.90
17146;DHT22;8688;54.444;18.444;2023-01-10T11:31:57;5.40;99.90
17146;DHT22;8688;54.444;18.444;2023-01-10T11:34:29;5.40;99.90
17146;DHT22;8688;54.444;18.444;2023-01-10T11:36:59;5.50;99.90
17146;DHT22;8688;54.444;18.444;2023-01-10T11:39:29;5.50;99.90
17146;DHT22;8688;54.444;18.444;2023-01-10T11:41:58;5.50;99.90
17146;DHT22;8688;54.444;18.444;2023-01-10T11:44:44;5.50;99.90
17146;DHT22;8688;54.444;18.444;2023-01-10T11:47:12;5.60;99.90
17146;DHT22;8688;54.444;18.444;2023-01-10T11:49:42;5.60;99.90
17146;DHT22;8688;54.444;18.444;2023-01-10T11:52:17;5.60;99.90
17146;DHT22;8688;54.444;18.444;2023-01-10T11:54:45;5.70;99.90
17146;DHT22;8688;54.444;18.444;2023-01-10T11:57:16;5.70;99.90
17146;DHT22;8688;54.444;18.444;2023-01-10T11:59:51;5.80;99.90
17146;DHT22;8688;54.444;18.444;2023-01-10T12:02:22;5.80;99.90
17146;DHT22;8688;54.444;18.444;2023-01-10T12:04:52;5.80;99.90
17146;DHT22;8688;54.444;18.444;2023-01-10T12:07:21;5.80;99.90
17146;DHT22;8688;54.444;18.444;2023-01-10T12:09:54;5.80;99.90
17146;DHT22;8688;54.444;18.444;2023-01-10T12:12:24;5.80;99.90
17146;DHT22;8688;54.444;18.444;2023-01-10T12:14:52;5.80;99.90
17146;DHT22;8688;54.444;18.444;2023-01-10T12:17:23;5.80;99.90
17146;DHT22;8688;54.444;18.444;2023-01-10T12:19:53;5.80;99.90
17146;DHT22;8688;54.444;18.444;2023-01-10T12:22:27;5.80;99.90
17146;DHT22;8688;54.444;18.444;2023-01-10T12:24:56;5.80;99.90
17146;DHT22;8688;54.444;18.444;2023-01-10T12:27:27;5.80;99.90
17146;DHT22;8688;54.444;18.444;2023-01-10T12:30:01;5.90;99.90
17146;DHT22;8688;54.444;18.444;2023-01-10T12:32:35;5.90;99.90
17146;DHT22;8688;54.444;18.444;2023-01-10T12:35:09;5.90;99.90
17146;DHT22;8688;54.444;18.444;2023-01-10T12:37:44;5.90;99.90
17146;DHT22;8688;54.444;18.444;2023-01-10T12:40:16;5.90;99.90
17146;DHT22;8688;54.444;18.444;2023-01-10T12:42:53;5.90;99.90
17146;DHT22;8688;54.444;18.444;2023-01-10T12:45:45;5.80;99.90
17146;DHT22;8688;54.444;18.444;2023-01-10T12:48:23;5.80;99.90
17146;DHT22;8688;54.444;18.444;2023-01-10T12:50:58;5.80;99.90
17146;DHT22;8688;54.444;18.444;2023-01-10T12:53:30;5.80;99.90
17146;DHT22;8688;54.444;18.444;2023-01-10T12:56:01;5.80;99.90
17146;DHT22;8688;54.444;18.444;2023-01-10T12:58:38;5.80;99.90
17146;DHT22;8688;54.444;18.444;2023-01-10T13:01:11;5.80;99.90
17146;DHT22;8688;54.444;18.444;2023-01-10T13:03:40;5.80;99.90
17146;DHT22;8688;54.444;18.444;2023-01-10T13:06:19;5.70;99.90
17146;DHT22;8688;54.444;18.444;2023-01-10T13:08:48;5.70;99.90
17146;DHT22;8688;54.444;18.444;2023-01-10T13:11:18;5.70;99.90
17146;DHT22;8688;54.444;18.444;2023-01-10T13:13:52;5.70;99.90
17146;DHT22;8688;54.444;18.444;2023-01-10T13:16:31;5.70;99.90
17146;DHT22;8688;54.444;18.444;2023-01-10T13:19:04;5.60;99.90
17146;DHT22;8688;54.444;18.444;2023-01-10T13:21:34;5.60;99.90
17146;DHT22;8688;54.444;18.444;2023-01-10T13:24:03;5.70;99.90
17146;DHT22;8688;54.444;18.444;2023-01-10T13:26:49;5.70;99.90
17146;DHT22;8688;54.444;18.444;2023-01-10T13:29:20;5.70;99.90
17146;DHT22;8688;54.444;18.444;2023-01-10T13:31:48;5.70;99.90
17146;DHT22;8688;54.444;18.444;2023-01-10T13:34:22;5.70;99.90
17146;DHT22;8688;54.444;18.444;2023-01-10T13:36:55;5.70;99.90
17146;DHT22;8688;54.444;18.444;2023-01-10T13:39:28;5.70;99.90
17146;DHT22;8688;54.444;18.444;2023-01-10T13:42:22;5.70;99.90
17146;DHT22;8688;54.444;18.444;2023-01-10T13:45:18;5.60;99.90
17146;DHT22;8688;54.444;18.444;2023-01-10T13:48:02;5.60;99.90
17146;DHT22;8688;54.444;18.444;2023-01-10T13:51:11;5.60;99.90
17146;DHT22;8688;54.444;18.444;2023-01-10T13:53:51;5.60;99.90
17146;DHT22;8688;54.444;18.444;2023-01-10T13:56:33;5.60;99.90
17146;DHT22;8688;54.444;18.444;2023-01-10T13:59:02;5.60;99.90
17146;DHT22;8688;54.444;18.444;2023-01-10T14:01:52;5.50;99.90
17146;DHT22;8688;54.444;18.444;2023-01-10T14:04:43;5.40;99.90
17146;DHT22;8688;54.444;18.444;2023-01-10T14:07:21;5.40;99.90
17146;DHT22;8688;54.444;18.444;2023-01-10T14:09:51;5.40;99.90
17146;DHT22;8688;54.444;18.444;2023-01-10T14:12:25;5.40;99.90
17146;DHT22;8688;54.444;18.444;2023-01-10T14:14:58;5.40;99.90
17146;DHT22;8688;54.444;18.444;2023-01-10T14:17:30;5.30;99.90
17146;DHT22;8688;54.444;18.444;2023-01-10T14:20:17;5.30;99.90
17146;DHT22;8688;54.444;18.444;2023-01-10T14:23:04;5.30;99.90
17146;DHT22;8688;54.444;18.444;2023-01-10T14:25:37;5.30;99.90
17146;DHT22;8688;54.444;18.444;2023-01-10T14:28:18;5.30;99.90
17146;DHT22;8688;54.444;18.444;2023-01-10T14:30:58;5.30;99.90
17146;DHT22;8688;54.444;18.444;2023-01-10T14:33:27;5.20;99.90
17146;DHT22;8688;54.444;18.444;2023-01-10T14:35:58;5.20;99.90
17146;DHT22;8688;54.444;18.444;2023-01-10T14:38:29;5.20;99.90
17146;DHT22;8688;54.444;18.444;2023-01-10T14:40:59;5.20;99.90
17146;DHT22;8688;54.444;18.444;2023-01-10T14:43:40;5.30;99.90
17146;DHT22;8688;54.444;18.444;2023-01-10T14:46:15;5.30;99.90
17146;DHT22;8688;54.444;18.444;2023-01-10T14:48:49;5.30;99.90
17146;DHT22;8688;54.444;18.444;2023-01-10T14:51:23;5.20;99.90
17146;DHT22;8688;54.444;18.444;2023-01-10T14:53:57;5.20;99.90
17146;DHT22;8688;54.444;18.444;2023-01-10T14:56:35;5.20;99.90
17146;DHT22;8688;54.444;18.444;2023-01-10T14:59:22;5.20;99.90
17146;DHT22;8688;54.444;18.444;2023-01-10T15:01:56;5.20;99.90
17146;DHT22;8688;54.444;18.444;2023-01-10T15:04:29;5.30;99.90
17146;DHT22;8688;54.444;18.444;2023-01-10T15:07:02;5.20;99.90
17146;DHT22;8688;54.444;18.444;2023-01-10T15:09:47;5.20;99.90
17146;DHT22;8688;54.444;18.444;2023-01-10T15:12:23;5.20;99.90
17146;DHT22;8688;54.444;18.444;2023-01-10T15:15:01;5.20;99.90
17146;DHT22;8688;54.444;18.444;2023-01-10T15:17:31;5.20;99.90
17146;DHT22;8688;54.444;18.444;2023-01-10T15:20:04;5.20;99.90
17146;DHT22;8688;54.444;18.444;2023-01-10T15:22:36;5.20;99.90
17146;DHT22;8688;54.444;18.444;2023-01-10T15:25:23;5.20;99.90
17146;DHT22;8688;54.444;18.444;2023-01-10T15:27:57;5.20;99.90
17146;DHT22;8688;54.444;18.444;2023-01-10T15:30:34;5.20;99.90
17146;DHT22;8688;54.444;18.444;2023-01-10T15:33:08;5.30;99.90
17146;DHT22;8688;54.444;18.444;2023-01-10T15:35:39;5.20;99.90
17146;DHT22;8688;54.444;18.444;2023-01-10T15:38:14;5.20;99.90
17146;DHT22;8688;54.444;18.444;2023-01-10T15:40:43;5.20;99.90
17146;DHT22;8688;54.444;18.444;2023-01-10T15:43:22;5.20;99.90
17146;DHT22;8688;54.444;18.444;2023-01-10T15:45:51;5.20;99.90
17146;DHT22;8688;54.444;18.444;2023-01-10T15:48:29;5.30;99.90
17146;DHT22;8688;54.444;18.444;2023-01-10T15:50:59;5.30;99.90
17146;DHT22;8688;54.444;18.444;2023-01-10T15:53:57;5.30;99.90
17146;DHT22;8688;54.444;18.444;2023-01-10T15:56:32;5.30;99.90
17146;DHT22;8688;54.444;18.444;2023-01-10T15:59:02;5.30;99.90
17146;DHT22;8688;54.444;18.444;2023-01-10T16:01:31;5.30;99.90
17146;DHT22;8688;54.444;18.444;2023-01-10T16:04:01;5.30;99.90
17146;DHT22;8688;54.444;18.444;2023-01-10T16:06:31;5.30;99.90
17146;DHT22;8688;54.444;18.444;2023-01-10T16:09:02;5.30;99.90
17146;DHT22;8688;54.444;18.444;2023-01-10T16:11:36;5.30;99.90
17146;DHT22;8688;54.444;18.444;2023-01-10T16:14:22;5.30;99.90
17146;DHT22;8688;54.444;18.444;2023-01-10T16:16:50;5.30;99.90
17146;DHT22;8688;54.444;18.444;2023-01-10T16:19:17;5.30;99.90
17146;DHT22;8688;54.444;18.444;2023-01-10T16:21:48;5.30;99.90
17146;DHT22;8688;54.444;18.444;2023-01-10T16:24:19;5.30;99.90
17146;DHT22;8688;54.444;18.444;2023-01-10T16:26:48;5.30;99.90
17146;DHT22;8688;54.444;18.444;2023-01-10T16:29:16;5.30;99.90
17146;DHT22;8688;54.444;18.444;2023-01-10T16:31:46;5.30;99.90